createdAt,value
2019-03-22T00:03:26.641Z,161.73
2019-03-22T00:08:29.312Z,151.10
2019-03-22T00:13:32.001Z,147.70
2019-03-22T00:18:36.404Z,160.47
2019-03-22T00:23:38.979Z,139.13
2019-03-22T00:28:41.832Z,141.77
2019-03-22T00:33:44.454Z,146.20
2019-03-22T00:38:47.253Z,141.07
2019-03-22T00:43:49.804Z,154.40
2019-03-22T00:48:52.405Z,157.17
2019-03-22T00:53:54.985Z,140.40
2019-03-22T00:59:00.459Z,158.63
2019-03-22T01:04:03.084Z,168.23
2019-03-22T01:09:05.900Z,171.90
2019-03-22T01:14:08.459Z,224.63
2019-03-22T01:19:11.084Z,354.17
2019-03-22T01:24:13.858Z,437.33
2019-03-22T01:29:19.270Z,290.27
2019-03-22T01:34:21.836Z,335.67
2019-03-22T01:39:27.307Z,428.77
2019-03-22T01:44:29.832Z,433.23
2019-03-22T01:49:32.365Z,384.83
2019-03-22T01:54:34.958Z,722.70
2019-03-22T01:59:37.730Z,397.07
2019-03-22T02:04:40.474Z,838.83
2019-03-22T02:09:44.531Z,496.27
2019-03-22T02:14:47.082Z,382.23
2019-03-22T02:19:51.462Z,589.90
2019-03-22T02:24:54.001Z,404.77
2019-03-22T02:29:56.645Z,404.77
2019-03-22T02:34:59.219Z,338.03
2019-03-22T02:40:02.155Z,1176.90
2019-03-22T02:45:06.392Z,853.20
2019-03-22T02:50:18.161Z,428.70
2019-03-22T02:55:18.979Z,952.13
2019-03-22T03:00:21.803Z,1073.20
2019-03-22T03:05:24.356Z,905.17
2019-03-22T03:10:29.040Z,811.40
2019-03-22T03:15:31.576Z,563.00
2019-03-22T03:20:34.235Z,659.33
2019-03-22T03:25:36.783Z,804.80
2019-03-22T03:30:39.436Z,1529.33
2019-03-22T03:35:41.975Z,450.17
2019-03-22T03:40:44.512Z,806.57
2019-03-22T03:45:47.092Z,678.87
2019-03-22T03:50:49.648Z,360.63
2019-03-22T03:55:52.277Z,581.77
2019-03-22T04:00:57.803Z,448.73
2019-03-22T04:06:00.387Z,435.10
2019-03-22T04:11:03.006Z,415.53
2019-03-22T04:16:05.543Z,515.03
2019-03-22T04:21:10.009Z,820.73
2019-03-22T04:26:12.560Z,812.93
2019-03-22T04:31:15.251Z,994.70
2019-03-22T04:36:20.224Z,861.53
2019-03-22T04:41:22.773Z,505.10
2019-03-22T04:46:27.090Z,583.27
2019-03-22T04:51:30.241Z,782.30
2019-03-22T04:56:35.885Z,876.27
2019-03-22T05:01:41.378Z,319.63
2019-03-22T05:06:45.327Z,594.03
2019-03-22T05:11:48.606Z,548.13
2019-03-22T05:16:54.001Z,566.00
2019-03-22T05:22:01.479Z,777.67
2019-03-22T05:27:05.916Z,461.23
2019-03-22T05:32:10.730Z,596.83
2019-03-22T05:37:15.701Z,578.83
2019-03-22T05:42:18.295Z,1082.63
2019-03-22T05:47:21.153Z,1020.63
2019-03-22T05:52:23.739Z,1200.00
2019-03-22T05:57:26.433Z,620.13
2019-03-22T06:02:29.003Z,489.43
2019-03-22T06:07:31.575Z,625.87
2019-03-22T06:12:34.134Z,926.50
2019-03-22T06:17:36.704Z,1093.20
2019-03-22T06:22:39.302Z,1066.13
2019-03-22T06:27:41.957Z,1226.33
2019-03-22T06:32:44.572Z,565.87
2019-03-22T06:37:47.403Z,471.20
2019-03-22T06:42:50.039Z,604.47
2019-03-22T06:47:52.603Z,417.90
2019-03-22T06:52:55.364Z,360.93
2019-03-22T06:57:58.089Z,622.93
2019-03-22T07:03:00.645Z,564.03
2019-03-22T07:08:03.335Z,474.27
2019-03-22T07:13:05.884Z,548.07
2019-03-22T07:18:08.483Z,565.10
2019-03-22T07:23:14.097Z,360.10
2019-03-22T07:28:16.784Z,334.43
2019-03-22T07:33:19.421Z,406.63
2019-03-22T07:38:23.303Z,451.43
2019-03-22T07:43:26.057Z,287.33
2019-03-22T07:48:30.005Z,320.27
2019-03-22T07:53:32.712Z,285.77
2019-03-22T07:58:35.269Z,256.77
2019-03-22T08:03:37.887Z,196.77
2019-03-22T08:08:40.472Z,248.37
2019-03-22T08:13:43.011Z,215.80
2019-03-22T08:18:45.546Z,236.40
2019-03-22T08:23:48.070Z,291.07
2019-03-22T08:28:50.667Z,375.10
2019-03-22T08:33:53.220Z,360.17
2019-03-22T08:38:55.857Z,217.30
2019-03-22T08:43:58.528Z,178.93
2019-03-22T08:49:01.419Z,199.80
2019-03-22T08:54:03.992Z,162.53
2019-03-22T08:59:06.884Z,168.60
2019-03-22T09:04:09.587Z,178.03
2019-03-22T09:09:12.346Z,177.23
2019-03-22T09:14:14.934Z,145.50
2019-03-22T09:19:17.469Z,166.60
2019-03-22T09:24:23.035Z,152.50
2019-03-22T09:29:25.805Z,158.90
2019-03-22T09:34:33.489Z,168.13
2019-03-22T09:39:35.690Z,157.20
2019-03-22T09:44:43.121Z,156.57
2019-03-22T09:49:43.067Z,151.03
2019-03-22T09:54:45.577Z,164.30
2019-03-22T09:59:48.454Z,175.03
2019-03-22T10:04:50.965Z,153.30
2019-03-22T10:09:56.177Z,170.20
2019-03-22T10:14:58.844Z,174.63
2019-03-22T10:20:01.658Z,158.40
2019-03-22T10:25:06.187Z,171.57
2019-03-22T10:30:09.548Z,181.77
2019-03-22T10:35:25.028Z,177.47
2019-03-22T10:40:16.990Z,164.63
2019-03-22T10:45:22.132Z,171.37
2019-03-22T10:50:24.925Z,157.67
2019-03-22T10:55:30.412Z,183.10
2019-03-22T11:00:32.483Z,179.43
2019-03-22T11:05:35.074Z,183.87
2019-03-22T11:10:39.531Z,175.57
2019-03-22T11:15:48.445Z,169.13
2019-03-22T11:20:46.892Z,178.67
2019-03-22T11:25:49.463Z,186.67
2019-03-22T11:31:04.466Z,176.37
2019-03-22T11:36:00.114Z,176.33
2019-03-22T11:41:02.775Z,170.10
2019-03-22T11:46:05.300Z,173.20
2019-03-22T11:51:07.899Z,155.27
2019-03-22T11:56:12.344Z,161.17
2019-03-22T12:01:20.260Z,154.30
2019-03-22T12:06:19.489Z,145.00
2019-03-22T12:11:22.326Z,140.97
2019-03-22T12:16:27.670Z,133.43
2019-03-22T12:21:33.067Z,118.20
2019-03-22T12:26:35.676Z,112.90
2019-03-22T12:31:39.535Z,120.87
2019-03-22T12:36:42.490Z,124.17
2019-03-22T12:41:45.360Z,108.00
2019-03-22T12:46:49.268Z,103.63
2019-03-22T12:51:58.437Z,113.50
2019-03-22T12:57:02.132Z,101.63
2019-03-22T13:02:04.789Z,98.83
2019-03-22T13:07:12.439Z,88.93
2019-03-22T13:12:15.663Z,95.63
2019-03-22T13:17:21.793Z,92.57
2019-03-22T13:22:24.487Z,95.77
2019-03-22T13:27:27.095Z,92.57
2019-03-22T13:32:31.223Z,88.17
2019-03-22T13:37:33.895Z,89.73
2019-03-22T13:42:36.445Z,79.67
2019-03-22T13:47:39.367Z,77.03
2019-03-22T13:52:42.112Z,71.17
2019-03-22T13:57:44.792Z,72.60
2019-03-22T14:02:47.530Z,74.33
2019-03-22T14:07:50.589Z,64.63
2019-03-22T14:12:53.147Z,71.17
2019-03-22T14:17:57.218Z,64.13
2019-03-22T14:22:59.758Z,64.07
2019-03-22T14:28:02.625Z,66.33
2019-03-22T14:33:13.400Z,54.70
2019-03-22T14:38:12.199Z,61.30
2019-03-22T14:43:17.571Z,63.10
2019-03-22T14:48:21.466Z,57.33
2019-03-22T14:53:27.143Z,69.97
2019-03-22T14:58:34.459Z,63.80
2019-03-22T15:03:40.103Z,62.10
2019-03-22T15:08:43.041Z,59.20
2019-03-22T15:13:53.455Z,63.73
2019-03-22T15:19:14.395Z,59.87
2019-03-22T15:24:35.829Z,62.27
2019-03-22T15:30:03.725Z,65.77
2019-03-22T15:35:31.315Z,56.00
2019-03-22T15:40:37.408Z,59.10
2019-03-22T15:45:39.969Z,64.13
2019-03-22T15:50:42.521Z,58.57
2019-03-22T15:55:45.135Z,65.30
2019-03-22T16:00:47.854Z,67.53
2019-03-22T16:05:53.315Z,63.00
2019-03-22T16:10:57.912Z,65.13
2019-03-22T16:16:00.458Z,66.33
2019-03-22T16:21:03.301Z,64.57
2019-03-22T16:26:05.893Z,67.30
2019-03-22T16:31:08.653Z,64.93
2019-03-22T16:36:11.211Z,69.60
2019-03-22T16:41:13.798Z,70.67
2019-03-22T16:46:16.371Z,73.07
2019-03-22T16:51:18.963Z,66.57
2019-03-22T16:56:21.518Z,71.27
2019-03-22T17:01:24.326Z,71.53
2019-03-22T17:06:28.437Z,67.30
2019-03-22T17:11:31.183Z,76.27
2019-03-22T17:16:33.728Z,65.03
2019-03-22T17:21:39.574Z,63.83
2019-03-22T17:26:42.454Z,62.10
2019-03-22T17:31:45.307Z,63.77
2019-03-22T17:36:47.844Z,64.03
2019-03-22T17:41:50.402Z,61.47
2019-03-22T17:46:52.941Z,66.00
2019-03-22T17:51:58.727Z,92.40
2019-03-22T17:57:01.290Z,105.37
2019-03-22T18:02:04.046Z,117.33
2019-03-22T18:07:12.653Z,138.93
2019-03-22T18:12:15.240Z,145.93
2019-03-22T18:17:23.113Z,164.73
2019-03-22T18:22:25.759Z,162.00
2019-03-22T18:27:30.446Z,163.00
2019-03-22T18:32:33.006Z,160.70
2019-03-22T18:37:35.671Z,161.77
2019-03-22T18:42:38.215Z,167.43
2019-03-22T18:47:41.732Z,161.87
2019-03-22T18:52:44.276Z,162.23
2019-03-22T18:57:50.803Z,158.50
2019-03-22T19:02:53.438Z,141.60
2019-03-22T19:07:58.509Z,143.00
2019-03-22T19:13:01.055Z,132.90
2019-03-22T19:18:04.003Z,135.93
2019-03-22T19:23:06.574Z,136.80
2019-03-22T19:28:09.243Z,144.07
2019-03-22T19:33:14.045Z,141.07
2019-03-22T19:38:16.592Z,143.87
2019-03-22T19:43:19.154Z,163.87
2019-03-22T19:48:22.023Z,172.03
2019-03-22T19:53:25.056Z,183.10
2019-03-22T19:58:32.119Z,196.70
2019-03-22T20:03:34.893Z,220.37
2019-03-22T20:08:37.884Z,184.60
2019-03-22T20:13:40.456Z,211.93
2019-03-22T20:18:43.151Z,203.93
2019-03-22T20:23:53.318Z,223.20
2019-03-22T20:28:50.553Z,222.07
2019-03-22T20:33:53.185Z,258.10
2019-03-22T20:38:58.168Z,254.77
2019-03-22T20:44:00.815Z,284.97
2019-03-22T20:49:05.259Z,285.17
2019-03-22T20:54:07.812Z,301.63
2019-03-22T20:59:10.717Z,294.20
2019-03-22T21:04:13.582Z,308.80
2019-03-22T21:09:21.829Z,324.93
2019-03-22T21:14:26.149Z,329.53
2019-03-22T21:19:32.647Z,314.63
2019-03-22T21:24:35.982Z,350.50
2019-03-22T21:29:44.312Z,372.13
2019-03-22T21:34:45.453Z,328.80
2019-03-22T21:39:48.139Z,290.27
2019-03-22T21:44:51.581Z,267.83
2019-03-22T21:49:54.988Z,271.83
2019-03-22T21:54:57.508Z,306.53
2019-03-22T22:00:00.390Z,305.90
2019-03-22T22:05:03.319Z,287.73
2019-03-22T22:10:09.016Z,303.90
2019-03-22T22:15:13.391Z,258.60
2019-03-22T22:20:16.155Z,260.63
2019-03-22T22:25:18.709Z,262.43
2019-03-22T22:30:21.929Z,263.63
2019-03-22T22:35:26.633Z,279.67
2019-03-22T22:40:29.201Z,253.87
2019-03-22T22:45:31.817Z,240.80
2019-03-22T22:50:35.009Z,220.87
2019-03-22T22:55:37.953Z,217.90
2019-03-22T23:00:41.010Z,219.27
2019-03-22T23:05:43.728Z,213.70
2019-03-22T23:10:51.476Z,194.83
2019-03-22T23:15:58.810Z,145.17
2019-03-22T23:21:03.703Z,135.80
2019-03-22T23:26:06.257Z,122.30
2019-03-22T23:31:10.287Z,118.40
2019-03-22T23:36:20.288Z,121.93
2019-03-22T23:41:17.331Z,117.57
2019-03-22T23:46:19.859Z,129.50
2019-03-22T23:51:22.536Z,119.77
2019-03-22T23:56:25.079Z,121.60
